• Join FlightAware (Why Join?)
  • Login
  • US Flag 
02:53AM EDT


 

Airport Tracker/Info


-or-


 

Live Flight TrackerFlight Track Log ✈ N2729L ✈ 21-Feb-2012 ✈ KCZQ - KSMO

Flight Track Log - Related Links

Times and Time Zones

All times are in EST time to prevent confusion due to time zone crossing. See the N2729L flight status page for this flight to view local times or setup timezone preferences in your user account.

Time Position Orientation Groundspeed Altitude Reporting Facility
EST Latitude Longitude Course Direction KTS MPH feet Rate Location/Type
06:31PM -19.9789 -159.9609 34° Northeast  Level FlightAware Approximate
06:36PM 36.5031 -119.5939 156° South 140 161 6,800  Level Oakland Center
06:37PM 36.4675 -119.5739 159° South 140 161 7,400 600 Climbing Oakland Center
06:38PM 36.4317 -119.5564 162° South 140 161 8,100 600 Climbing Oakland Center
06:39PM 36.3961 -119.5417 160° South 145 167 8,700 600 Climbing Oakland Center
06:40PM 36.3583 -119.5244 158° South 145 167 9,300 600 Climbing Oakland Center
06:41PM 36.3228 -119.5069 157° South 145 167 9,900 600 Climbing Oakland Center
06:42PM 36.2850 -119.4872 163° South 150 173 10,600 600 Climbing Oakland Center
06:43PM 36.2450 -119.4725 160° South 150 173 11,100 540 Climbing Oakland Center
06:44PM 36.2072 -119.4553 157° South 150 173 11,700 540 Climbing Oakland Center
06:45PM 36.1694 -119.4353 159° South 150 173 12,200 540 Climbing Oakland Center
06:46PM 36.1275 -119.4156 154° Southeast 150 173 12,800 540 Climbing Oakland Center
06:46PM 36.1175 -119.4094 160° South 150 173 12,900 420 Climbing Los Angeles Center
06:47PM 36.0783 -119.3922 158° South 155 178 13,400 300 Climbing Los Angeles Center
06:48PM 36.0331 -119.3700 160° South 166 191 13,600 60 Climbing Los Angeles Center
06:49PM 35.9836 -119.3475 160° South 173 199 13,600  Level Los Angeles Center
06:50PM 35.9319 -119.3247 158° South 186 214 13,600  Level Los Angeles Center
06:51PM 35.8806 -119.2997 159° South 191 220 13,600  Level Los Angeles Center
06:52PM 35.8289 -119.2747 158° South 196 226 13,600  Level Los Angeles Center
06:53PM 35.7775 -119.2497 159° South 202 232 13,600  Level Los Angeles Center
06:54PM 35.7239 -119.2244 159° South 202 232 13,600  Level Los Angeles Center
06:55PM 35.6703 -119.1994 159° South 208 239 13,600  Level Los Angeles Center
06:56PM 35.6167 -119.1744 161° South 208 239 13,600  Level Los Angeles Center
06:57PM 35.5631 -119.1519 159° South 208 239 13,600  Level Los Angeles Center
06:58PM 35.5094 -119.1269 159° South 208 239 13,600  Level Los Angeles Center
06:59PM 35.4556 -119.1019 159° South 208 239 13,600  Level Los Angeles Center
07:00PM 35.4019 -119.0772 159° South 208 239 13,600  Level Los Angeles Center
07:01PM 35.3483 -119.0522 159° South 208 239 13,600  Level Los Angeles Center
07:02PM 35.2947 -119.0275 159° South 208 239 13,600  Level Los Angeles Center
07:03PM 35.2411 -119.0028 161° South 208 239 13,600  Level Los Angeles Center
07:04PM 35.1872 -118.9806 159° South 208 239 13,600  Level Los Angeles Center
07:05PM 35.1336 -118.9558 159° South 208 239 13,600  Level Los Angeles Center
07:06PM 35.0819 -118.9311 159° South 208 239 13,600  Level Los Angeles Center
07:07PM 35.0283 -118.9064 160° South 208 239 13,600  Level Los Angeles Center
07:08PM 34.9747 -118.8819 161° South 208 239 13,600 -540 Level Los Angeles Center
07:09PM 34.9167 -118.8572 165° South 213 245 12,600 -960 Descending Los Angeles Center
07:10PM 34.8547 -118.8375 159° South 224 258 11,700 -1,200 Descending Los Angeles Center
07:11PM 34.7947 -118.8100 156° South 224 258 10,200 -1,260 Descending Los Angeles Center
07:12PM 34.7350 -118.7778 160° South 229 264 9,200 -840 Descending Los Angeles Center
07:13PM 34.6750 -118.7506 161° South 229 264 8,600 -600 Descending Los Angeles Center
07:14PM 34.6150 -118.7261 159° South 224 258 8,000 -600 Descending Los Angeles Center
07:15PM 34.5633 -118.7017 160° South 218 251 7,500 -300 Descending Los Angeles Center
07:16PM 34.5094 -118.6775 160° South 212 244 7,500 -120 Level Los Angeles Center
07:17PM 34.4600 -118.6556 159° South 201 231 7,300 -360 Descending Los Angeles Center
07:18PM 34.4083 -118.6314 164° South 201 231 6,800 -540 Descending Los Angeles Center
07:19PM 34.3667 -118.6167 151° Southeast 202 232 6,400 -720 Descending Southern California TRACON
07:20PM 34.3167 -118.5833 165° South 206 237 5,600 -720 Descending Southern California TRACON
07:21PM 34.2667 -118.5667 195° South 201 231 5,000 -660 Descending Southern California TRACON
07:22PM 34.2167 -118.5833 129° Southeast 200 230 4,300 -660 Descending Southern California TRACON
07:23PM 34.1833 -118.5333 129° Southeast 187 215 3,700 -600 Descending Southern California TRACON
07:24PM 34.1500 -118.4833 158° South 151 174 3,100 -600 Descending Southern California TRACON
07:25PM 34.1167 -118.4667 227° Southwest 142 163 2,500 -600 Descending Southern California TRACON
07:25PM 34.1086 -118.4769 189° South 148 170 2,400 -240 Descending Los Angeles Center
07:26PM 34.0731 -118.4836 216° Southwest 124 143 2,200 -180 Descending Los Angeles Center
07:27PM 34.0478 -118.5056 174° South 119 137 2,100 -120 Descending Los Angeles Center
07:28PM 34.0206 -118.5022 76° East 104 120 2,000 -60 Descending Los Angeles Center
07:29PM 34.0275 -118.4697 41° Northeast 66 76 2,000 -60 Level Los Angeles Center
07:30PM 34.0508 -118.4453 314° West 83 96 1,900 -60 Descending Los Angeles Center
07:31PM 34.0550 -118.4506 37° Northeast 53 61 1,900  Level Los Angeles Center
07:32PM 34.0742 -118.4333 62° Northeast 53 61 2,000  Climbing Los Angeles Center
07:33PM 34.0806 -118.4186 177° South 46 53 2,000 -300 Level Los Angeles Center
07:35PM 34.0500 -118.4167 203° Southwest 106 122 1,300 -660 Descending Southern California TRACON
07:36PM 34.0167 -118.4333 203° Southwest 106 122 400 -900 Descending Southern California TRACON